createdAt,value
2023-01-29T00:02:26.040Z,101715.92
2023-01-29T00:05:53.533Z,101710.56
2023-01-29T00:09:21.396Z,101706.58
2023-01-29T00:12:48.461Z,101691.19
2023-01-29T00:16:15.948Z,101689.85
2023-01-29T00:19:42.888Z,101691.86
2023-01-29T00:23:09.844Z,101675.20
2023-01-29T00:26:37.517Z,101668.10
2023-01-29T00:33:44.030Z,101657.59
2023-01-29T00:37:12.202Z,101656.71
2023-01-29T00:40:59.213Z,101650.64
2023-01-29T00:44:44.149Z,101652.57
2023-01-29T00:48:11.282Z,101650.34
2023-01-29T00:51:39.776Z,101646.23
2023-01-29T00:55:10.234Z,101647.96
2023-01-29T00:58:37.683Z,101649.66
2023-01-29T01:02:22.248Z,101650.66
2023-01-29T01:05:49.624Z,101644.91
2023-01-29T01:09:37.379Z,101651.69
2023-01-29T01:13:06.885Z,101663.41
2023-01-29T01:16:33.892Z,101664.18
2023-01-29T01:20:01.114Z,101659.23
2023-01-29T01:23:28.718Z,101654.99
2023-01-29T01:26:55.828Z,101651.88
2023-01-29T01:30:24.387Z,101650.35
2023-01-29T01:33:54.489Z,101646.29
2023-01-29T01:37:21.598Z,101642.18
2023-01-29T01:40:51.691Z,101644.89
2023-01-29T01:44:56.450Z,101648.45
2023-01-29T01:48:27.745Z,101657.52
2023-01-29T01:51:55.488Z,101648.79
2023-01-29T01:55:26.727Z,101645.47
2023-01-29T01:58:56.463Z,101647.45
2023-01-29T02:02:42.203Z,101645.25
2023-01-29T02:06:28.207Z,101640.63
2023-01-29T02:10:01.806Z,101634.13
2023-01-29T02:13:29.684Z,101641.17
2023-01-29T02:16:56.806Z,101639.58
2023-01-29T02:20:27.901Z,101632.80
2023-01-29T02:24:33.338Z,101634.80
2023-01-29T02:28:21.900Z,101633.46
2023-01-29T02:31:58.109Z,101636.13
2023-01-29T02:35:32.029Z,101639.17
2023-01-29T02:39:05.753Z,101633.02
2023-01-29T02:42:38.016Z,101619.72
2023-01-29T02:46:12.682Z,101621.75
2023-01-29T02:49:46.185Z,101619.94
2023-01-29T02:53:17.424Z,101614.15
2023-01-29T02:56:50.230Z,101619.63
2023-01-29T03:00:22.196Z,101617.23
2023-01-29T03:03:54.798Z,101617.70
2023-01-29T03:07:40.505Z,101609.55
2023-01-29T03:11:13.640Z,101611.68
2023-01-29T03:14:57.027Z,101609.69
2023-01-29T03:18:27.864Z,101605.52
2023-01-29T03:22:02.283Z,101605.11
2023-01-29T03:25:49.751Z,101600.94
2023-01-29T03:29:34.941Z,101588.10
2023-01-29T03:33:05.753Z,101584.52
2023-01-29T03:36:39.880Z,101578.50
2023-01-29T03:40:10.346Z,101572.40
2023-01-29T03:43:48.640Z,101565.04
2023-01-29T03:47:23.920Z,101553.48
2023-01-29T03:50:59.042Z,101553.66
2023-01-29T03:54:35.176Z,101554.64
2023-01-29T03:58:07.040Z,101547.75
2023-01-29T04:01:41.755Z,101542.02
2023-01-29T04:05:16.162Z,101547.11
2023-01-29T04:08:58.775Z,101541.90
2023-01-29T04:12:30.933Z,101534.34
2023-01-29T04:16:00.365Z,101526.72
2023-01-29T04:19:47.902Z,101529.90
2023-01-29T04:23:25.731Z,101525.34
2023-01-29T04:27:01.649Z,101518.39
2023-01-29T04:30:42.682Z,101513.56
2023-01-29T04:34:21.876Z,101499.90
2023-01-29T04:37:58.111Z,101503.94
2023-01-29T04:41:31.584Z,101501.43
2023-01-29T04:45:07.400Z,101492.88
2023-01-29T04:48:44.129Z,101485.05
2023-01-29T04:52:18.217Z,101479.72
2023-01-29T04:55:48.566Z,101475.27
2023-01-29T04:59:19.047Z,101464.49
2023-01-29T05:02:50.007Z,101471.45
2023-01-29T05:06:19.643Z,101476.77
2023-01-29T05:09:46.298Z,101478.70
2023-01-29T05:13:15.556Z,101479.21
2023-01-29T05:16:47.426Z,101473.86
2023-01-29T05:20:16.163Z,101462.27
2023-01-29T05:23:59.572Z,101456.20
2023-01-29T05:27:51.488Z,101461.77
2023-01-29T05:31:18.618Z,101471.75
2023-01-29T05:34:45.645Z,101472.59
2023-01-29T05:38:13.075Z,101465.98
2023-01-29T05:41:40.138Z,101460.37
2023-01-29T05:45:09.287Z,101467.66
2023-01-29T05:48:36.201Z,101477.91
2023-01-29T05:52:03.466Z,101482.56
2023-01-29T05:55:30.711Z,101485.73
2023-01-29T05:58:58.927Z,101484.48
2023-01-29T06:02:26.437Z,101479.25
2023-01-29T06:05:53.742Z,101477.92
2023-01-29T06:09:20.647Z,101489.15
2023-01-29T06:12:47.685Z,101496.09
2023-01-29T06:16:17.534Z,101494.13
2023-01-29T06:19:44.603Z,101496.05
2023-01-29T06:23:11.693Z,101494.39
2023-01-29T06:26:39.067Z,101488.09
2023-01-29T06:30:07.491Z,101486.46
2023-01-29T06:33:34.749Z,101490.00
2023-01-29T06:37:01.919Z,101501.85
2023-01-29T06:40:29.171Z,101505.61
2023-01-29T06:43:56.168Z,101503.92
2023-01-29T06:47:23.349Z,101507.34
2023-01-29T06:50:50.717Z,101511.48
2023-01-29T06:54:17.826Z,101503.77
2023-01-29T06:57:44.802Z,101498.21
2023-01-29T07:01:33.058Z,101499.05
2023-01-29T07:05:01.696Z,101490.27
2023-01-29T07:08:29.974Z,101484.84
2023-01-29T07:11:57.085Z,101481.48
2023-01-29T07:15:24.424Z,101475.91
2023-01-29T07:18:51.535Z,101473.15
2023-01-29T07:22:18.854Z,101469.83
2023-01-29T07:25:46.067Z,101470.95
2023-01-29T07:29:13.101Z,101462.66
2023-01-29T07:32:40.486Z,101460.34
2023-01-29T07:36:11.066Z,101455.79
2023-01-29T07:39:38.212Z,101454.20
2023-01-29T07:43:07.071Z,101455.92
2023-01-29T07:46:34.282Z,101453.39
2023-01-29T07:50:01.633Z,101448.29
2023-01-29T07:53:29.709Z,101450.45
2023-01-29T07:56:56.686Z,101460.27
2023-01-29T08:00:25.152Z,101470.50
2023-01-29T08:03:52.835Z,101469.26
2023-01-29T08:07:19.863Z,101473.98
2023-01-29T08:10:46.875Z,101476.25
2023-01-29T08:14:13.974Z,101475.89
2023-01-29T08:17:56.122Z,101474.08
2023-01-29T08:21:24.476Z,101475.33
2023-01-29T08:24:59.864Z,101477.80
2023-01-29T08:28:27.600Z,101477.34
2023-01-29T08:31:54.748Z,101471.27
2023-01-29T08:35:22.369Z,101473.92
2023-01-29T08:38:49.397Z,101462.59
2023-01-29T08:42:16.427Z,101452.05
2023-01-29T08:45:44.931Z,101438.33
2023-01-29T08:49:13.201Z,101425.20
2023-01-29T08:52:40.294Z,101421.61
2023-01-29T08:56:08.554Z,101425.80
2023-01-29T08:59:35.621Z,101425.53
2023-01-29T09:03:03.958Z,101424.73
2023-01-29T09:06:31.274Z,101425.27
2023-01-29T09:09:58.333Z,101418.14
2023-01-29T09:13:25.564Z,101420.23
2023-01-29T09:16:54.965Z,101427.34
2023-01-29T09:20:22.661Z,101431.30
2023-01-29T09:23:49.663Z,101426.82
2023-01-29T09:27:16.727Z,101422.96
2023-01-29T09:30:43.804Z,101417.91
2023-01-29T09:34:11.009Z,101423.08
2023-01-29T09:37:38.075Z,101421.26
2023-01-29T09:41:26.942Z,101428.08
2023-01-29T09:45:04.741Z,101425.54
2023-01-29T09:48:36.788Z,101420.21
2023-01-29T09:52:11.149Z,101417.61
2023-01-29T09:55:45.524Z,101414.61
2023-01-29T09:59:15.364Z,101421.95
2023-01-29T10:02:55.708Z,101420.09
2023-01-29T10:06:36.173Z,101415.33
2023-01-29T10:10:28.476Z,101410.17
2023-01-29T10:14:06.865Z,101406.33
2023-01-29T10:17:50.597Z,101397.41
2023-01-29T10:21:53.802Z,101387.85
2023-01-29T10:25:23.695Z,101381.14
2023-01-29T10:28:53.751Z,101374.39
2023-01-29T10:32:24.884Z,101368.89
2023-01-29T10:35:56.753Z,101369.27
2023-01-29T10:39:28.428Z,101357.69
2023-01-29T10:43:05.285Z,101359.24
2023-01-29T10:46:47.274Z,101356.26
2023-01-29T10:50:26.921Z,101352.51
2023-01-29T10:54:10.317Z,101343.23
2023-01-29T10:57:55.015Z,101327.08
2023-01-29T11:01:21.997Z,101327.70
2023-01-29T11:04:49.179Z,101327.25
2023-01-29T11:08:21.252Z,101329.26
2023-01-29T11:11:54.026Z,101324.27
2023-01-29T11:15:25.709Z,101323.48
2023-01-29T11:18:56.127Z,101327.56
2023-01-29T11:22:24.767Z,101330.60
2023-01-29T11:25:56.315Z,101321.83
2023-01-29T11:29:44.884Z,101303.92
2023-01-29T11:33:20.770Z,101298.88
2023-01-29T11:36:47.884Z,101301.89
2023-01-29T11:40:40.838Z,101300.02
2023-01-29T11:44:21.358Z,101282.41
2023-01-29T11:47:54.036Z,101269.07
2023-01-29T11:51:27.231Z,101262.88
2023-01-29T11:54:59.639Z,101247.74
2023-01-29T11:58:32.426Z,101247.38
2023-01-29T12:02:11.753Z,101248.71
2023-01-29T12:05:39.989Z,101243.73
2023-01-29T12:09:17.557Z,101231.48
2023-01-29T12:12:45.697Z,101228.25
2023-01-29T12:16:24.823Z,101227.95
2023-01-29T12:19:57.662Z,101228.16
2023-01-29T12:23:36.545Z,101227.63
2023-01-29T12:27:13.635Z,101223.40
2023-01-29T12:30:49.368Z,101215.16
2023-01-29T12:34:23.805Z,101211.96
2023-01-29T12:38:01.041Z,101211.98
2023-01-29T12:41:35.489Z,101210.46
2023-01-29T12:45:05.277Z,101206.41
2023-01-29T12:48:35.257Z,101203.83
2023-01-29T12:52:08.740Z,101205.79
2023-01-29T12:55:43.119Z,101202.44
2023-01-29T12:59:18.832Z,101200.21
2023-01-29T13:02:55.011Z,101205.60
2023-01-29T13:06:36.435Z,101203.76
2023-01-29T13:10:11.932Z,101194.37
2023-01-29T13:13:44.749Z,101187.42
2023-01-29T13:17:16.747Z,101166.36
2023-01-29T13:20:44.749Z,101156.66
2023-01-29T13:24:16.383Z,101153.77
2023-01-29T13:27:48.013Z,101156.59
2023-01-29T13:31:37.743Z,101160.29
2023-01-29T13:35:13.306Z,101161.06
2023-01-29T13:38:42.028Z,101163.49
2023-01-29T13:42:21.101Z,101158.89
2023-01-29T13:45:48.895Z,101167.53
2023-01-29T13:49:30.392Z,101158.58
2023-01-29T13:53:01.900Z,101150.79
2023-01-29T13:56:44.274Z,101143.89
2023-01-29T14:01:01.759Z,101152.53
2023-01-29T14:04:32.061Z,101149.17
2023-01-29T14:07:59.980Z,101146.83
2023-01-29T14:11:38.523Z,101139.41
2023-01-29T14:15:23.048Z,101140.27
2023-01-29T14:18:55.647Z,101140.27
2023-01-29T14:22:27.347Z,101139.39
2023-01-29T14:25:54.861Z,101139.40
2023-01-29T14:29:34.329Z,101139.46
2023-01-29T14:33:03.803Z,101128.70
2023-01-29T14:36:39.772Z,101129.40
2023-01-29T14:40:24.821Z,101126.16
2023-01-29T14:43:51.940Z,101133.54
2023-01-29T14:47:43.522Z,101127.16
2023-01-29T14:51:13.977Z,101116.88
2023-01-29T14:54:44.288Z,101116.77
2023-01-29T14:58:31.195Z,101112.15
2023-01-29T15:02:01.715Z,101116.52
2023-01-29T15:05:33.657Z,101107.69
2023-01-29T15:09:11.208Z,101098.54
2023-01-29T15:12:49.744Z,101095.40
2023-01-29T15:16:22.038Z,101093.29
2023-01-29T15:19:51.012Z,101087.45
2023-01-29T15:23:32.208Z,101082.56
2023-01-29T15:27:00.805Z,101083.05
2023-01-29T15:30:34.137Z,101083.05
2023-01-29T15:34:07.647Z,101073.33
2023-01-29T15:37:37.275Z,101070.05
2023-01-29T15:41:17.415Z,101075.58
2023-01-29T15:44:48.558Z,101073.77
2023-01-29T15:48:20.105Z,101073.13
2023-01-29T15:51:50.228Z,101077.13
2023-01-29T15:55:20.178Z,101077.87
2023-01-29T15:58:50.703Z,101075.34
2023-01-29T16:02:37.598Z,101076.02
2023-01-29T16:06:08.821Z,101072.25
2023-01-29T16:09:37.953Z,101068.53
2023-01-29T16:13:06.310Z,101057.58
2023-01-29T16:16:33.788Z,101048.84
2023-01-29T16:20:38.479Z,101040.93
2023-01-29T16:24:11.853Z,101039.40
2023-01-29T16:27:43.368Z,101034.25
2023-01-29T16:31:11.368Z,101035.48
2023-01-29T16:34:41.836Z,101036.98
2023-01-29T16:38:20.277Z,101039.85
2023-01-29T16:42:03.736Z,101035.27
2023-01-29T16:45:31.439Z,101034.35
2023-01-29T16:48:58.426Z,101030.90
2023-01-29T16:52:28.763Z,101030.85
2023-01-29T16:56:03.777Z,101027.84
2023-01-29T16:59:36.718Z,101029.27
2023-01-29T17:03:08.361Z,101028.61
2023-01-29T17:06:36.550Z,101024.39
2023-01-29T17:10:06.697Z,101021.13
2023-01-29T17:13:39.654Z,101019.78
2023-01-29T17:17:15.561Z,101019.30
2023-01-29T17:20:42.695Z,101020.18
2023-01-29T17:24:11.536Z,101020.89
2023-01-29T17:27:45.627Z,101009.62
2023-01-29T17:31:13.405Z,101006.68
2023-01-29T17:34:40.723Z,100998.52
2023-01-29T17:38:24.156Z,100998.69
2023-01-29T17:41:55.117Z,100995.69
2023-01-29T17:45:22.365Z,100991.15
2023-01-29T17:48:50.348Z,100987.84
2023-01-29T17:52:17.780Z,100981.35
2023-01-29T17:55:46.096Z,100980.67
2023-01-29T17:59:19.704Z,100977.71
2023-01-29T18:02:47.285Z,100969.35
2023-01-29T18:06:24.171Z,100960.23
2023-01-29T18:09:51.556Z,100963.91
2023-01-29T18:13:18.660Z,100966.77
2023-01-29T18:16:49.514Z,100968.08
2023-01-29T18:20:22.658Z,100959.79
2023-01-29T18:23:49.835Z,100953.39
2023-01-29T18:27:17.354Z,100948.70
2023-01-29T18:30:47.048Z,100948.48
2023-01-29T18:34:14.492Z,100941.80
2023-01-29T18:37:41.504Z,100938.80
2023-01-29T18:41:11.342Z,100927.50
2023-01-29T18:44:38.689Z,100913.08
2023-01-29T18:48:06.762Z,100907.91
2023-01-29T18:51:34.318Z,100903.54
2023-01-29T18:55:02.549Z,100903.40
2023-01-29T18:58:35.811Z,100900.34
2023-01-29T19:02:04.553Z,100893.42
2023-01-29T19:05:35.960Z,100889.58
2023-01-29T19:09:03.572Z,100887.00
2023-01-29T19:12:30.908Z,100887.23
2023-01-29T19:15:58.547Z,100885.02
2023-01-29T19:19:27.036Z,100885.16
2023-01-29T19:22:54.855Z,100877.11
2023-01-29T19:26:23.233Z,100877.92
2023-01-29T19:29:51.240Z,100872.41
2023-01-29T19:33:19.247Z,100867.33
2023-01-29T19:36:47.305Z,100871.63
2023-01-29T19:40:16.035Z,100866.23
2023-01-29T19:43:43.694Z,100863.80
2023-01-29T19:47:11.697Z,100861.07
2023-01-29T19:50:39.153Z,100859.59
2023-01-29T19:54:07.321Z,100854.88
2023-01-29T19:57:35.302Z,100848.09
2023-01-29T20:01:06.777Z,100845.96
2023-01-29T20:04:34.866Z,100842.04
2023-01-29T20:08:02.937Z,100836.20
2023-01-29T20:11:31.073Z,100832.22
2023-01-29T20:14:59.316Z,100820.33
2023-01-29T20:18:27.244Z,100822.50
2023-01-29T20:21:55.267Z,100820.91
2023-01-29T20:25:23.822Z,100819.52
2023-01-29T20:28:51.963Z,100818.49
2023-01-29T20:32:20.712Z,100815.11
2023-01-29T20:35:54.255Z,100807.07
2023-01-29T20:39:22.253Z,100796.61
2023-01-29T20:42:50.267Z,100794.09
2023-01-29T20:46:19.344Z,100792.86
2023-01-29T20:49:47.939Z,100787.35
2023-01-29T20:53:16.407Z,100773.86
2023-01-29T20:56:46.735Z,100759.79
2023-01-29T21:00:18.689Z,100746.43
2023-01-29T21:03:47.711Z,100742.33
2023-01-29T21:07:16.367Z,100737.19
2023-01-29T21:10:46.532Z,100733.11
2023-01-29T21:14:14.237Z,100732.56
2023-01-29T21:17:41.660Z,100724.74
2023-01-29T21:21:08.872Z,100719.86
2023-01-29T21:24:36.402Z,100715.66
2023-01-29T21:28:04.508Z,100714.96
2023-01-29T21:31:31.694Z,100710.02
2023-01-29T21:34:59.297Z,100703.79
2023-01-29T21:38:29.374Z,100699.92
2023-01-29T21:42:14.480Z,100693.67
2023-01-29T21:45:42.763Z,100686.41
2023-01-29T21:49:10.035Z,100681.16
2023-01-29T21:52:37.036Z,100667.45
2023-01-29T21:56:05.946Z,100669.60
2023-01-29T21:59:33.560Z,100663.09
2023-01-29T22:03:00.908Z,100658.41
2023-01-29T22:06:28.482Z,100654.04
2023-01-29T22:09:55.621Z,100657.10
2023-01-29T22:13:23.067Z,100648.21
2023-01-29T22:16:50.032Z,100638.52
2023-01-29T22:20:17.902Z,100630.58
2023-01-29T22:23:45.404Z,100626.08
2023-01-29T22:27:12.482Z,100616.59
2023-01-29T22:30:39.884Z,100602.63
2023-01-29T22:34:07.210Z,100589.29
2023-01-29T22:37:34.314Z,100577.55
2023-01-29T22:41:02.695Z,100569.55
2023-01-29T22:44:30.211Z,100566.52
2023-01-29T22:48:07.228Z,100557.23
2023-01-29T22:51:35.444Z,100548.51
2023-01-29T22:55:02.588Z,100536.08
2023-01-29T22:58:29.997Z,100533.81
2023-01-29T23:01:57.303Z,100528.61
2023-01-29T23:05:33.301Z,100515.73
2023-01-29T23:09:00.311Z,100505.24
2023-01-29T23:12:27.581Z,100501.05
2023-01-29T23:16:01.792Z,100495.12
2023-01-29T23:19:30.202Z,100491.02
2023-01-29T23:22:57.228Z,100484.27
2023-01-29T23:26:41.916Z,100471.81
2023-01-29T23:30:11.452Z,100461.27
2023-01-29T23:33:38.952Z,100446.81
2023-01-29T23:37:06.412Z,100440.96
2023-01-29T23:40:33.396Z,100435.72
2023-01-29T23:44:00.456Z,100436.91
2023-01-29T23:47:27.591Z,100426.70
2023-01-29T23:50:54.527Z,100417.30
2023-01-29T23:54:21.673Z,100414.19
2023-01-29T23:57:49.010Z,100413.01
